Airfield :
LOGIN :

Register | Disclaimer

   EN    FR    IT 

 










Legend :    VFR   Marginal VFR   IFR   Intensive IFR   Very Intensive IFR
Visi :
Ceiling :
>= 8 km
>= 3000ft
5 to 8 km
1000 to 3000 ft
1500m to 5 km
500 to 1000 ft
800 to 1500m
200 to 500 ft
< 800m
< 200 ft
Symbols :   Thunderstorms  Fog  Heavy snow  Heavy precipitations  Wind > 20 kt
SIGMETs :     Misc.  Thunderstorms  Icing  Turbulence  Mountain Waves  Volcanic Ashes






- Airport Elevation : 297 ft
- IATA code : ODB


LEBA - Córdoba

CURRENT METAR :
  • 131430Z 24011KT 210V270 9999 FEW032 SCT042 20/11 Q1013

EXPIRED METARs :
  • 131400Z 24010KT 210V280 9999 FEW039 SCT047 20/11 Q1014
  • 131330Z 26009KT 210V300 9999 SCT033 SCT047 20/11 Q1014
  • 131300Z 25011KT 200V280 9999 FEW025 SCT032 20/12 Q1014
  • 131230Z 27012KT 230V290 9999 SCT021 BKN029 19/12 Q1014
  • 131200Z 25011KT 9999 SCT021 BKN029 18/13 Q1015
  • 131130Z 25011KT 220V290 9999 -DZ BKN019 16/12 Q1015

TAF TAF LEBA
Valid from the 13 at 15:00 until the 14 at 00:00 UTC


131400Z 1315/1324 23010KT 9999 SCT020 SCT040
BECMG 1316/1318 VRB03KT



MET'MAP, your aeronautical weather chart ! - Copyright ORBIFLY December 2007 - Disclaimer

ORBIFLY MET'MAP TEAM :

Programming & Development : Alexandra Zaïnal
Concept & Development : Baudouin d'Aumeries
Co-Development & Prog : Marc-Olivier Méhu
Technical & hardware support : Manuel Goepfert

Contact : metmap@orbifly.com




SOURCES & CREDITS :

   NOAA